createdAt,value
2018-10-03T00:00:52.566Z,5.20
2018-10-03T00:01:52.578Z,4.70
2018-10-03T00:02:52.594Z,5.50
2018-10-03T00:03:52.603Z,5.20
2018-10-03T00:04:52.621Z,5.10
2018-10-03T00:05:52.632Z,4.80
2018-10-03T00:06:52.642Z,4.50
2018-10-03T00:07:52.657Z,4.60
2018-10-03T00:08:52.673Z,4.90
2018-10-03T00:09:52.685Z,4.80
2018-10-03T00:10:52.700Z,4.50
2018-10-03T00:11:52.712Z,4.80
2018-10-03T00:13:52.839Z,4.70
2018-10-03T00:15:52.810Z,5.00
2018-10-03T00:16:52.784Z,5.10
2018-10-03T00:17:52.791Z,4.90
2018-10-03T00:18:52.802Z,4.60
2018-10-03T00:19:52.817Z,5.20
2018-10-03T00:20:52.831Z,5.00
2018-10-03T00:21:52.841Z,4.90
2018-10-03T00:22:52.857Z,5.00
2018-10-03T00:23:52.869Z,5.40
2018-10-03T00:24:52.880Z,4.80
2018-10-03T00:25:52.899Z,5.90
2018-10-03T00:26:52.908Z,5.30
2018-10-03T00:27:52.924Z,5.40
2018-10-03T00:28:52.934Z,4.40
2018-10-03T00:29:52.944Z,5.00
2018-10-03T00:30:52.959Z,5.30
2018-10-03T00:31:52.974Z,6.10
2018-10-03T00:32:52.986Z,5.20
2018-10-03T00:33:53.000Z,5.30
2018-10-03T00:34:53.028Z,5.50
2018-10-03T00:35:53.027Z,5.10
2018-10-03T00:36:53.037Z,6.00
2018-10-03T00:37:53.049Z,4.90
2018-10-03T00:38:53.064Z,5.50
2018-10-03T00:39:53.088Z,4.90
2018-10-03T00:40:53.090Z,5.40
2018-10-03T00:41:53.103Z,5.40
2018-10-03T00:42:53.117Z,6.20
2018-10-03T00:43:53.131Z,5.20
2018-10-03T00:44:53.142Z,5.00
2018-10-03T00:45:53.176Z,5.20
2018-10-03T00:48:53.802Z,5.20
2018-10-03T00:49:53.210Z,4.90
2018-10-03T00:50:53.228Z,5.00
2018-10-03T00:51:53.238Z,5.10
2018-10-03T00:52:53.247Z,4.60
2018-10-03T00:53:53.261Z,5.00
2018-10-03T00:54:53.278Z,5.40
2018-10-03T00:55:53.291Z,4.90
2018-10-03T00:56:53.298Z,4.90
2018-10-03T00:57:53.314Z,5.10
2018-10-03T00:58:53.329Z,4.60
2018-10-03T00:59:53.347Z,5.00
2018-10-03T01:00:53.374Z,4.90
2018-10-03T01:01:53.369Z,5.10
2018-10-03T01:02:53.386Z,5.10
2018-10-03T01:03:53.395Z,5.20
2018-10-03T01:04:53.413Z,5.30
2018-10-03T01:05:53.421Z,4.60
2018-10-03T01:06:53.436Z,5.50
2018-10-03T01:07:53.451Z,4.60
2018-10-03T01:08:53.467Z,4.70
2018-10-03T01:09:53.478Z,4.70
2018-10-03T01:10:53.485Z,4.90
2018-10-03T01:11:53.500Z,5.50
2018-10-03T01:12:53.514Z,5.10
2018-10-03T01:13:53.526Z,5.10
2018-10-03T01:14:53.542Z,4.70
2018-10-03T01:15:53.555Z,4.30
2018-10-03T01:16:53.571Z,4.10
2018-10-03T01:17:53.579Z,5.40
2018-10-03T01:18:53.745Z,4.50
2018-10-03T01:19:53.805Z,5.10
2018-10-03T01:21:53.791Z,5.20
2018-10-03T01:22:54.077Z,4.90
2018-10-03T01:23:53.659Z,5.30
2018-10-03T01:24:53.673Z,4.80
2018-10-03T01:25:53.686Z,4.20
2018-10-03T01:26:53.701Z,4.70
2018-10-03T01:27:53.716Z,4.30
2018-10-03T01:28:53.731Z,4.90
2018-10-03T01:29:53.741Z,4.50
2018-10-03T01:30:53.856Z,4.70
2018-10-03T01:31:53.772Z,5.40
2018-10-03T01:32:53.779Z,4.60
2018-10-03T01:33:53.794Z,5.20
2018-10-03T01:34:53.805Z,4.60
2018-10-03T01:35:53.818Z,4.40
2018-10-03T01:36:53.831Z,4.80
2018-10-03T01:37:53.847Z,4.60
2018-10-03T01:38:53.860Z,5.10
2018-10-03T01:39:53.873Z,4.60
2018-10-03T01:40:53.885Z,4.60
2018-10-03T01:41:53.936Z,4.20
2018-10-03T01:42:53.914Z,4.70
2018-10-03T01:43:53.927Z,4.50
2018-10-03T01:44:53.939Z,4.90
2018-10-03T01:45:53.955Z,4.60
2018-10-03T01:46:53.963Z,4.90
2018-10-03T01:47:53.978Z,5.30
2018-10-03T01:48:53.991Z,4.60
2018-10-03T01:49:54.005Z,5.10
2018-10-03T01:50:54.022Z,4.90
2018-10-03T01:51:54.030Z,5.00
2018-10-03T01:52:54.149Z,4.90
2018-10-03T01:53:54.123Z,4.50
2018-10-03T01:55:54.353Z,4.70
2018-10-03T01:56:54.102Z,4.60
2018-10-03T01:57:54.114Z,5.10
2018-10-03T01:58:54.129Z,5.40
2018-10-03T01:59:54.138Z,4.30
2018-10-03T02:00:54.153Z,4.60
2018-10-03T02:01:54.164Z,5.70
2018-10-03T02:02:54.182Z,4.60
2018-10-03T02:03:54.201Z,5.00
2018-10-03T02:04:54.209Z,4.60
2018-10-03T02:05:54.228Z,5.40
2018-10-03T02:06:54.264Z,5.10
2018-10-03T02:07:54.246Z,5.30
2018-10-03T02:08:54.259Z,6.00
2018-10-03T02:09:54.272Z,4.80
2018-10-03T02:10:54.288Z,5.50
2018-10-03T02:11:54.300Z,5.10
2018-10-03T02:12:54.311Z,4.80
2018-10-03T02:13:54.325Z,5.00
2018-10-03T02:14:54.347Z,5.00
2018-10-03T02:15:54.353Z,5.00
2018-10-03T02:16:54.372Z,5.60
2018-10-03T02:17:54.388Z,4.70
2018-10-03T02:18:54.399Z,5.30
2018-10-03T02:19:54.406Z,5.00
2018-10-03T02:20:54.419Z,6.10
2018-10-03T02:21:54.434Z,4.90
2018-10-03T02:22:54.449Z,5.10
2018-10-03T02:23:54.566Z,4.90
2018-10-03T02:25:55.168Z,5.40
2018-10-03T02:26:54.506Z,5.10
2018-10-03T02:27:54.516Z,5.50
2018-10-03T02:28:54.528Z,4.90
2018-10-03T02:29:54.544Z,5.70
2018-10-03T02:30:54.557Z,5.70
2018-10-03T02:31:54.647Z,4.70
2018-10-03T02:32:55.138Z,5.10
2018-10-03T02:33:55.181Z,5.40
2018-10-03T02:34:54.638Z,5.00
2018-10-03T02:35:54.634Z,4.90
2018-10-03T02:36:54.633Z,5.60
2018-10-03T02:37:54.647Z,5.40
2018-10-03T02:38:54.664Z,5.10
2018-10-03T02:39:54.674Z,4.80
2018-10-03T02:40:54.945Z,6.00
2018-10-03T02:41:54.703Z,5.50
2018-10-03T02:42:54.715Z,5.20
2018-10-03T02:43:54.732Z,5.20
2018-10-03T02:44:54.739Z,5.40
2018-10-03T02:45:54.756Z,5.60
2018-10-03T02:46:54.766Z,5.40
2018-10-03T02:47:54.805Z,5.20
2018-10-03T02:48:54.803Z,5.70
2018-10-03T02:49:54.817Z,5.10
2018-10-03T02:50:54.820Z,5.30
2018-10-03T02:51:54.838Z,6.00
2018-10-03T02:52:54.846Z,5.10
2018-10-03T02:53:54.860Z,5.00
2018-10-03T02:54:54.877Z,5.70
2018-10-03T02:55:54.892Z,6.00
2018-10-03T02:58:55.112Z,5.80
2018-10-03T02:59:55.009Z,5.90
2018-10-03T03:00:54.970Z,5.60
2018-10-03T03:01:55.032Z,6.70
2018-10-03T03:02:55.034Z,6.10
2018-10-03T03:03:54.995Z,6.00
2018-10-03T03:04:55.009Z,5.30
2018-10-03T03:05:55.021Z,5.90
2018-10-03T03:06:55.042Z,6.20
2018-10-03T03:07:55.051Z,5.60
2018-10-03T03:08:55.112Z,6.80
2018-10-03T03:09:55.074Z,5.40
2018-10-03T03:10:55.091Z,5.80
2018-10-03T03:11:55.105Z,6.30
2018-10-03T03:12:55.128Z,6.20
2018-10-03T03:13:55.126Z,6.10
2018-10-03T03:14:55.139Z,6.10
2018-10-03T03:15:55.221Z,5.60
2018-10-03T03:16:55.318Z,5.20
2018-10-03T03:17:55.174Z,6.00
2018-10-03T03:18:55.395Z,5.60
2018-10-03T03:19:55.742Z,5.60
2018-10-03T03:20:55.217Z,6.70
2018-10-03T03:21:55.229Z,5.70
2018-10-03T03:22:55.245Z,5.90
2018-10-03T03:23:55.256Z,5.70
2018-10-03T03:24:55.266Z,6.30
2018-10-03T03:25:55.280Z,5.50
2018-10-03T03:26:55.294Z,5.40
2018-10-03T03:27:55.314Z,5.70
2018-10-03T03:28:55.321Z,5.80
2018-10-03T03:29:55.334Z,6.10
2018-10-03T03:30:55.350Z,5.90
2018-10-03T03:32:55.379Z,5.80
2018-10-03T03:33:55.387Z,6.40
2018-10-03T03:34:55.405Z,5.80
2018-10-03T03:35:55.416Z,5.50
2018-10-03T03:36:55.431Z,5.20
2018-10-03T03:37:55.446Z,5.80
2018-10-03T03:38:55.458Z,5.80
2018-10-03T03:39:55.469Z,5.20
2018-10-03T03:40:55.492Z,5.90
2018-10-03T03:41:55.497Z,6.20
2018-10-03T03:42:55.511Z,5.50
2018-10-03T03:43:55.529Z,6.40
2018-10-03T03:44:55.537Z,6.80
2018-10-03T03:45:55.548Z,5.70
2018-10-03T03:46:55.570Z,5.80
2018-10-03T03:47:55.575Z,5.50
2018-10-03T03:48:55.589Z,6.20
2018-10-03T03:49:55.617Z,5.60
2018-10-03T03:50:55.615Z,5.90
2018-10-03T03:51:55.629Z,6.90
2018-10-03T03:52:55.644Z,5.60
2018-10-03T03:53:55.655Z,6.10
2018-10-03T03:54:55.669Z,6.30
2018-10-03T03:55:55.691Z,5.90
2018-10-03T03:56:55.733Z,5.70
2018-10-03T03:57:55.709Z,5.60
2018-10-03T03:58:55.724Z,6.00
2018-10-03T03:59:55.741Z,5.60
2018-10-03T04:00:55.758Z,5.40
2018-10-03T04:01:55.763Z,5.80
2018-10-03T04:02:55.777Z,5.70
2018-10-03T04:03:55.890Z,6.30
2018-10-03T04:04:56.005Z,5.80
2018-10-03T04:06:56.294Z,5.90
2018-10-03T04:07:55.859Z,5.60
2018-10-03T04:08:55.858Z,6.20
2018-10-03T04:09:55.869Z,6.00
2018-10-03T04:10:55.888Z,6.20
2018-10-03T04:11:55.896Z,5.80
2018-10-03T04:12:55.913Z,5.60
2018-10-03T04:13:55.922Z,5.40
2018-10-03T04:14:55.938Z,5.50
2018-10-03T04:15:55.953Z,5.80
2018-10-03T04:16:55.963Z,5.80
2018-10-03T04:17:55.979Z,5.10
2018-10-03T04:18:55.991Z,6.30
2018-10-03T04:19:56.003Z,5.70
2018-10-03T04:20:56.027Z,5.90
2018-10-03T04:21:56.033Z,6.00
2018-10-03T04:22:56.045Z,6.00
2018-10-03T04:23:56.068Z,6.00
2018-10-03T04:24:56.074Z,6.50
2018-10-03T04:25:56.095Z,6.40
2018-10-03T04:26:56.098Z,6.00
2018-10-03T04:27:56.116Z,5.90
2018-10-03T04:28:56.124Z,6.00
2018-10-03T04:29:56.137Z,6.40
2018-10-03T04:30:56.150Z,6.00
2018-10-03T04:31:56.164Z,5.90
2018-10-03T04:32:56.175Z,5.90
2018-10-03T04:33:56.190Z,5.60
2018-10-03T04:34:56.204Z,5.80
2018-10-03T04:35:56.227Z,5.80
2018-10-03T04:36:56.229Z,5.10
2018-10-03T04:37:56.250Z,5.30
2018-10-03T04:40:56.314Z,5.90
2018-10-03T04:41:56.729Z,5.60
2018-10-03T04:42:56.314Z,6.00
2018-10-03T04:43:56.327Z,5.50
2018-10-03T04:44:56.340Z,6.10
2018-10-03T04:45:56.350Z,5.60
2018-10-03T04:46:56.362Z,5.60
2018-10-03T04:47:56.381Z,5.80
2018-10-03T04:48:56.406Z,5.70
2018-10-03T04:49:56.401Z,5.50
2018-10-03T04:50:56.417Z,5.90
2018-10-03T04:51:56.429Z,5.80
2018-10-03T04:52:56.443Z,6.30
2018-10-03T04:53:56.455Z,5.90
2018-10-03T04:54:56.469Z,6.00
2018-10-03T04:55:56.483Z,6.30
2018-10-03T04:56:56.494Z,6.00
2018-10-03T04:57:56.510Z,5.90
2018-10-03T04:58:56.523Z,6.00
2018-10-03T04:59:56.536Z,6.20
2018-10-03T05:00:56.561Z,5.60
2018-10-03T05:01:56.565Z,5.80
2018-10-03T05:02:56.575Z,5.60
2018-10-03T05:03:56.592Z,5.50
2018-10-03T05:04:56.601Z,5.70
2018-10-03T05:05:56.614Z,5.60
2018-10-03T05:06:56.639Z,6.00
2018-10-03T05:07:56.640Z,5.90
2018-10-03T05:08:56.656Z,5.40
2018-10-03T05:09:56.669Z,5.30
2018-10-03T05:10:56.681Z,5.90
2018-10-03T05:12:56.760Z,5.50
2018-10-03T05:13:56.721Z,5.50
2018-10-03T05:14:56.748Z,5.30
2018-10-03T05:15:56.748Z,5.40
2018-10-03T05:16:56.759Z,5.40
2018-10-03T05:17:56.774Z,5.70
2018-10-03T05:18:56.789Z,5.50
2018-10-03T05:19:56.801Z,5.30
2018-10-03T05:20:56.812Z,6.00
2018-10-03T05:21:56.830Z,5.90
2018-10-03T05:22:56.841Z,5.10
2018-10-03T05:23:56.856Z,6.00
2018-10-03T05:24:56.864Z,5.60
2018-10-03T05:25:56.884Z,6.40
2018-10-03T05:26:56.892Z,5.70
2018-10-03T05:27:56.987Z,6.60
2018-10-03T05:28:56.919Z,5.70
2018-10-03T05:29:56.935Z,5.80
2018-10-03T05:30:56.945Z,6.40
2018-10-03T05:31:56.963Z,5.70
2018-10-03T05:32:56.976Z,5.30
2018-10-03T05:33:56.991Z,5.90
2018-10-03T05:34:57.003Z,5.70
2018-10-03T05:35:57.014Z,5.60
2018-10-03T05:36:57.027Z,6.30
2018-10-03T05:37:57.039Z,5.40
2018-10-03T05:38:57.061Z,4.80
2018-10-03T05:39:57.067Z,5.90
2018-10-03T05:40:57.088Z,6.00
2018-10-03T05:43:57.187Z,5.80
2018-10-03T05:44:57.135Z,5.20
2018-10-03T05:45:57.151Z,5.30
2018-10-03T05:46:57.161Z,6.30
2018-10-03T05:47:57.178Z,5.50
2018-10-03T05:48:57.189Z,5.80
2018-10-03T05:49:57.199Z,6.30
2018-10-03T05:50:57.210Z,5.60
2018-10-03T05:51:57.225Z,6.10
2018-10-03T05:52:57.237Z,5.00
2018-10-03T05:53:57.250Z,5.10
2018-10-03T05:54:57.264Z,5.50
2018-10-03T05:55:57.278Z,5.80
2018-10-03T05:56:57.291Z,5.80
2018-10-03T05:57:57.306Z,5.90
2018-10-03T05:58:57.322Z,5.60
2018-10-03T05:59:57.330Z,6.00
2018-10-03T06:00:57.344Z,5.10
2018-10-03T06:01:57.359Z,6.40
2018-10-03T06:02:57.446Z,5.20
2018-10-03T06:03:57.384Z,5.70
2018-10-03T06:04:57.397Z,5.90
2018-10-03T06:05:57.410Z,5.40
2018-10-03T06:06:57.423Z,5.30
2018-10-03T06:07:57.436Z,5.70
2018-10-03T06:08:57.450Z,5.00
2018-10-03T06:09:57.466Z,5.00
2018-10-03T06:10:57.479Z,5.60
2018-10-03T06:11:57.518Z,5.40
2018-10-03T06:12:57.501Z,6.20
2018-10-03T06:13:57.516Z,5.20
2018-10-03T06:15:57.556Z,5.60
2018-10-03T06:16:57.578Z,5.90
2018-10-03T06:17:57.568Z,5.50
2018-10-03T06:18:57.585Z,5.40
2018-10-03T06:19:57.604Z,5.90
2018-10-03T06:20:57.615Z,5.50
2018-10-03T06:21:57.626Z,5.40
2018-10-03T06:22:57.653Z,6.10
2018-10-03T06:23:57.651Z,5.60
2018-10-03T06:24:57.674Z,5.90
2018-10-03T06:25:57.676Z,4.90
2018-10-03T06:26:57.688Z,4.80
2018-10-03T06:27:57.814Z,5.30
2018-10-03T06:28:57.715Z,5.10
2018-10-03T06:29:57.732Z,5.00
2018-10-03T06:30:57.761Z,4.70
2018-10-03T06:31:57.766Z,4.90
2018-10-03T06:32:57.771Z,5.00
2018-10-03T06:33:57.783Z,5.70
2018-10-03T06:34:57.798Z,4.70
2018-10-03T06:35:57.810Z,5.50
2018-10-03T06:36:57.824Z,5.00
2018-10-03T06:37:57.834Z,5.50
2018-10-03T06:38:57.852Z,5.40
2018-10-03T06:39:57.865Z,4.60
2018-10-03T06:40:57.882Z,4.80
2018-10-03T06:41:57.967Z,5.00
2018-10-03T06:42:57.904Z,4.90
2018-10-03T06:43:57.918Z,5.00
2018-10-03T06:44:57.928Z,4.80
2018-10-03T06:45:57.948Z,5.60
2018-10-03T06:46:57.984Z,4.90
2018-10-03T06:47:57.975Z,4.80
2018-10-03T06:48:57.985Z,4.50
2018-10-03T06:49:58.046Z,5.10
2018-10-03T06:50:58.024Z,5.20
2018-10-03T06:51:58.174Z,4.20
2018-10-03T06:52:58.037Z,5.10
2018-10-03T06:53:58.051Z,4.80
2018-10-03T06:54:58.063Z,4.30
2018-10-03T06:55:58.078Z,4.30
2018-10-03T06:56:58.146Z,4.80
2018-10-03T06:57:58.116Z,4.50
2018-10-03T06:58:58.118Z,5.00
2018-10-03T06:59:58.132Z,4.40
2018-10-03T07:00:58.146Z,5.10
2018-10-03T07:01:58.158Z,4.60
2018-10-03T07:02:58.169Z,4.70
2018-10-03T07:03:58.184Z,4.70
2018-10-03T07:04:58.199Z,4.50
2018-10-03T07:05:58.211Z,4.70
2018-10-03T07:06:58.227Z,4.70
2018-10-03T07:07:58.240Z,4.70
2018-10-03T07:08:58.263Z,4.50
2018-10-03T07:09:58.278Z,4.60
2018-10-03T07:10:58.279Z,5.20
2018-10-03T07:11:58.319Z,4.90
2018-10-03T07:12:58.328Z,4.90
2018-10-03T07:13:58.325Z,5.00
2018-10-03T07:14:58.335Z,4.70
2018-10-03T07:15:58.350Z,4.30
2018-10-03T07:16:58.360Z,4.70
2018-10-03T07:17:58.374Z,4.10
2018-10-03T07:18:58.389Z,4.20
2018-10-03T07:19:58.403Z,3.90
2018-10-03T07:20:58.414Z,4.40
2018-10-03T07:21:58.532Z,4.60
2018-10-03T07:22:58.492Z,4.30
2018-10-03T07:23:58.829Z,4.40
2018-10-03T07:24:58.468Z,4.80
2018-10-03T07:25:58.549Z,4.20
2018-10-03T07:26:58.501Z,4.70
2018-10-03T07:27:58.512Z,4.20
2018-10-03T07:28:58.523Z,4.40
2018-10-03T07:29:58.536Z,4.60
2018-10-03T07:30:58.554Z,4.40
2018-10-03T07:31:58.577Z,5.10
2018-10-03T07:32:58.577Z,4.30
2018-10-03T07:33:58.597Z,4.50
2018-10-03T07:34:58.608Z,4.30
2018-10-03T07:35:58.620Z,4.90
2018-10-03T07:36:58.633Z,4.10
2018-10-03T07:38:58.662Z,4.80
2018-10-03T07:39:59.132Z,4.60
2018-10-03T07:40:58.691Z,4.50
2018-10-03T07:41:58.704Z,4.20
2018-10-03T07:42:58.716Z,4.50
2018-10-03T07:43:58.771Z,4.60
2018-10-03T07:44:58.744Z,4.70
2018-10-03T07:45:58.763Z,4.30
2018-10-03T07:46:58.777Z,4.40
2018-10-03T07:47:58.832Z,4.30
2018-10-03T07:48:58.830Z,4.30
2018-10-03T07:49:58.817Z,4.30
2018-10-03T07:50:58.828Z,4.10
2018-10-03T07:51:58.841Z,4.20
2018-10-03T07:52:58.857Z,4.00
2018-10-03T07:53:58.877Z,4.60
2018-10-03T07:54:58.981Z,4.20
2018-10-03T07:55:59.141Z,4.40
2018-10-03T07:56:58.911Z,4.00
2018-10-03T07:57:58.938Z,4.80
2018-10-03T07:58:59.022Z,3.80
2018-10-03T07:59:58.972Z,4.80
2018-10-03T08:00:59.063Z,4.60
2018-10-03T08:01:58.977Z,4.50
2018-10-03T08:02:58.992Z,4.40
2018-10-03T08:03:59.019Z,3.70
2018-10-03T08:04:59.036Z,4.50
2018-10-03T08:05:59.037Z,4.70
2018-10-03T08:06:59.053Z,4.20
2018-10-03T08:07:59.078Z,4.70
2018-10-03T08:08:59.104Z,4.20
2018-10-03T08:09:59.122Z,4.70
2018-10-03T08:10:59.108Z,5.10
2018-10-03T08:11:59.117Z,4.70
2018-10-03T08:12:59.131Z,4.50
2018-10-03T08:13:59.148Z,4.00
2018-10-03T08:14:59.162Z,4.10
2018-10-03T08:15:59.189Z,4.40
2018-10-03T08:16:59.187Z,4.60
2018-10-03T08:17:59.201Z,3.80
2018-10-03T08:18:59.215Z,4.10
2018-10-03T08:19:59.250Z,4.10
2018-10-03T08:20:59.268Z,4.70
2018-10-03T08:21:59.256Z,4.20
2018-10-03T08:22:59.332Z,4.10
2018-10-03T08:23:59.285Z,4.50
2018-10-03T08:24:59.303Z,3.60
2018-10-03T08:25:59.364Z,4.90
2018-10-03T08:26:59.329Z,3.50
2018-10-03T08:27:59.409Z,4.30
2018-10-03T08:29:59.425Z,4.40
2018-10-03T08:30:59.389Z,4.10
2018-10-03T08:31:59.407Z,4.60
2018-10-03T08:32:59.480Z,4.10
2018-10-03T08:33:59.437Z,3.90
2018-10-03T08:34:59.453Z,3.90
2018-10-03T08:35:59.458Z,4.10
2018-10-03T08:36:59.471Z,4.10
2018-10-03T08:37:59.482Z,4.20
2018-10-03T08:38:59.496Z,3.80
2018-10-03T08:39:59.508Z,3.80
2018-10-03T08:40:59.524Z,4.20
2018-10-03T08:41:59.536Z,3.60
2018-10-03T08:42:59.552Z,4.30
2018-10-03T08:43:59.571Z,3.90
2018-10-03T08:44:59.581Z,4.60
2018-10-03T08:45:59.598Z,4.40
2018-10-03T08:46:59.610Z,4.20
2018-10-03T08:47:59.618Z,4.30
2018-10-03T08:48:59.636Z,3.60
2018-10-03T08:49:59.648Z,4.10
2018-10-03T08:50:59.662Z,4.50
2018-10-03T08:51:59.699Z,3.80
2018-10-03T08:52:59.698Z,4.00
2018-10-03T08:53:59.703Z,3.90
2018-10-03T08:54:59.719Z,3.60
2018-10-03T08:55:59.729Z,3.80
2018-10-03T08:56:59.847Z,3.40
2018-10-03T08:57:59.912Z,3.50
2018-10-03T08:59:00.128Z,3.80
2018-10-03T08:59:59.892Z,3.50
2018-10-03T09:01:00.297Z,3.70
2018-10-03T09:01:59.828Z,3.90
2018-10-03T09:02:59.827Z,3.60
2018-10-03T09:03:59.843Z,3.40
2018-10-03T09:04:59.865Z,4.00
2018-10-03T09:05:59.871Z,3.60
2018-10-03T09:06:59.885Z,3.40
2018-10-03T09:07:59.902Z,3.90
2018-10-03T09:08:59.916Z,4.00
2018-10-03T09:09:59.948Z,3.90
2018-10-03T09:10:59.938Z,3.80
2018-10-03T09:11:59.953Z,3.70
2018-10-03T09:12:59.972Z,3.40
2018-10-03T09:13:59.982Z,3.90
2018-10-03T09:14:59.997Z,4.00
2018-10-03T09:16:00.017Z,3.50
2018-10-03T09:17:00.024Z,3.80
2018-10-03T09:18:00.070Z,3.60
2018-10-03T09:19:00.054Z,3.20
2018-10-03T09:20:00.069Z,3.80
2018-10-03T09:21:00.084Z,3.70
2018-10-03T09:22:00.093Z,3.60
2018-10-03T09:23:00.108Z,3.60
2018-10-03T09:24:00.126Z,4.00
2018-10-03T09:25:00.137Z,3.60
2018-10-03T09:26:00.159Z,3.20
2018-10-03T09:27:00.181Z,3.80
2018-10-03T09:28:00.179Z,3.30
2018-10-03T09:29:00.214Z,4.00
2018-10-03T09:30:00.226Z,3.80
2018-10-03T09:31:00.346Z,3.40
2018-10-03T09:34:00.299Z,3.50
2018-10-03T09:35:00.283Z,3.40
2018-10-03T09:36:00.290Z,3.70
2018-10-03T09:37:00.309Z,3.60
2018-10-03T09:38:00.321Z,3.20
2018-10-03T09:39:00.372Z,3.20
2018-10-03T09:40:00.350Z,3.50
2018-10-03T09:41:00.372Z,3.50
2018-10-03T09:42:00.389Z,3.60
2018-10-03T09:43:00.396Z,3.80
2018-10-03T09:44:00.411Z,3.90
2018-10-03T09:45:00.421Z,3.80
2018-10-03T09:46:00.435Z,3.60
2018-10-03T09:47:00.451Z,3.90
2018-10-03T09:48:00.468Z,3.30
2018-10-03T09:49:00.484Z,3.70
2018-10-03T09:50:00.488Z,3.40
2018-10-03T09:51:00.507Z,3.70
2018-10-03T09:52:00.532Z,3.10
2018-10-03T09:53:00.548Z,3.10
2018-10-03T09:54:00.552Z,3.80
2018-10-03T09:55:00.568Z,3.40
2018-10-03T09:56:00.579Z,3.50
2018-10-03T09:57:00.595Z,3.00
2018-10-03T09:58:00.605Z,3.30
2018-10-03T09:59:00.619Z,3.40
2018-10-03T10:00:00.641Z,3.20
2018-10-03T10:01:00.647Z,3.30
2018-10-03T10:02:00.660Z,3.00
2018-10-03T10:03:00.717Z,2.80
2018-10-03T10:04:00.941Z,3.50
2018-10-03T10:06:00.770Z,2.90
2018-10-03T10:07:00.731Z,3.30
2018-10-03T10:08:00.875Z,3.40
2018-10-03T10:09:00.760Z,3.20
2018-10-03T10:10:00.779Z,3.00
2018-10-03T10:11:00.841Z,2.90
2018-10-03T10:12:00.807Z,3.30
2018-10-03T10:13:00.817Z,3.20
2018-10-03T10:14:00.835Z,2.90
2018-10-03T10:15:00.846Z,3.40
2018-10-03T10:16:00.865Z,3.10
2018-10-03T10:17:00.891Z,3.40
2018-10-03T10:18:00.893Z,4.00
2018-10-03T10:19:00.905Z,3.30
2018-10-03T10:20:00.922Z,3.60
2018-10-03T10:21:00.930Z,3.60
2018-10-03T10:22:00.945Z,3.50
2018-10-03T10:23:00.962Z,3.00
2018-10-03T10:24:00.978Z,2.80
2018-10-03T10:25:00.987Z,3.40
2018-10-03T10:26:01.004Z,3.40
2018-10-03T10:27:01.016Z,3.70
2018-10-03T10:28:01.031Z,3.30
2018-10-03T10:29:01.045Z,3.30
2018-10-03T10:30:01.151Z,3.30
2018-10-03T10:31:01.075Z,3.30
2018-10-03T10:32:01.148Z,2.90
2018-10-03T10:33:01.260Z,3.10
2018-10-03T10:34:01.130Z,3.00
2018-10-03T10:35:01.136Z,3.10
2018-10-03T10:36:01.172Z,2.70
2018-10-03T10:37:01.166Z,3.30
2018-10-03T10:39:01.370Z,2.90
2018-10-03T10:40:01.265Z,3.20
2018-10-03T10:41:01.253Z,3.40
2018-10-03T10:42:01.231Z,3.60
2018-10-03T10:43:01.251Z,2.80
2018-10-03T10:44:01.266Z,2.90
2018-10-03T10:45:01.281Z,3.00
2018-10-03T10:46:01.302Z,2.90
2018-10-03T10:47:01.306Z,3.00
2018-10-03T10:48:01.320Z,2.90
2018-10-03T10:49:01.336Z,2.80
2018-10-03T10:50:01.351Z,3.00
2018-10-03T10:51:01.362Z,3.50
2018-10-03T10:52:01.390Z,2.40
2018-10-03T10:53:01.418Z,2.90
2018-10-03T10:54:01.418Z,2.90
2018-10-03T10:55:01.421Z,3.10
2018-10-03T10:56:01.438Z,3.50
2018-10-03T10:57:01.465Z,3.10
2018-10-03T10:58:01.463Z,3.00
2018-10-03T10:59:01.481Z,2.90
2018-10-03T11:00:01.655Z,2.90
2018-10-03T11:01:01.510Z,3.10
2018-10-03T11:02:01.527Z,2.90
2018-10-03T11:03:01.545Z,2.70
2018-10-03T11:04:01.554Z,3.00
2018-10-03T11:05:01.578Z,3.00
2018-10-03T11:06:01.616Z,2.90
2018-10-03T11:07:01.597Z,3.20
2018-10-03T11:08:01.619Z,2.80
2018-10-03T11:09:01.629Z,2.70
2018-10-03T11:10:01.639Z,2.80
2018-10-03T11:13:02.197Z,3.20
2018-10-03T11:14:01.721Z,3.00
2018-10-03T11:15:01.715Z,2.80
2018-10-03T11:16:01.733Z,3.00
2018-10-03T11:17:01.845Z,2.90
2018-10-03T11:18:01.763Z,2.50
2018-10-03T11:19:01.773Z,2.80
2018-10-03T11:20:01.844Z,2.80
2018-10-03T11:21:01.814Z,2.50
2018-10-03T11:22:01.819Z,2.70
2018-10-03T11:23:01.845Z,3.00
2018-10-03T11:24:01.877Z,2.70
2018-10-03T11:25:01.979Z,3.00
2018-10-03T11:26:01.892Z,2.60
2018-10-03T11:27:01.910Z,3.20
2018-10-03T11:28:01.911Z,3.00
2018-10-03T11:29:01.919Z,2.80
2018-10-03T11:30:01.934Z,3.50
2018-10-03T11:31:01.967Z,3.00
2018-10-03T11:32:02.035Z,3.00
2018-10-03T11:33:01.996Z,3.30
2018-10-03T11:34:02.048Z,3.00
2018-10-03T11:35:02.004Z,2.90
2018-10-03T11:36:02.019Z,2.50
2018-10-03T11:37:02.056Z,3.00
2018-10-03T11:38:02.090Z,2.90
2018-10-03T11:40:02.076Z,3.10
2018-10-03T11:41:02.110Z,2.80
2018-10-03T11:42:02.123Z,3.20
2018-10-03T11:43:02.374Z,3.10
2018-10-03T11:45:02.152Z,2.70
2018-10-03T11:46:02.162Z,3.10
2018-10-03T11:47:02.174Z,2.90
2018-10-03T11:48:02.194Z,2.90
2018-10-03T11:49:02.205Z,3.00
2018-10-03T11:50:02.218Z,2.40
2018-10-03T11:51:02.234Z,2.90
2018-10-03T11:52:02.250Z,2.60
2018-10-03T11:53:02.266Z,2.70
2018-10-03T11:54:02.282Z,2.70
2018-10-03T11:55:02.300Z,2.60
2018-10-03T11:56:02.307Z,3.00
2018-10-03T11:57:02.376Z,2.90
2018-10-03T11:58:02.338Z,2.90
2018-10-03T11:59:02.353Z,2.50
2018-10-03T12:00:02.368Z,2.50
2018-10-03T12:01:02.388Z,2.90
2018-10-03T12:02:02.420Z,2.60
2018-10-03T12:03:02.556Z,2.50
2018-10-03T12:04:02.426Z,2.60
2018-10-03T12:05:02.442Z,2.60
2018-10-03T12:06:02.457Z,2.40
2018-10-03T12:07:02.486Z,2.50
2018-10-03T12:08:02.498Z,2.40
2018-10-03T12:09:02.571Z,2.90
2018-10-03T12:10:02.515Z,2.70
2018-10-03T12:11:02.530Z,2.50
2018-10-03T12:12:02.553Z,3.00
2018-10-03T12:13:02.594Z,3.10
2018-10-03T12:14:02.729Z,2.50
2018-10-03T12:16:02.618Z,2.80
2018-10-03T12:17:02.643Z,2.70
2018-10-03T12:18:02.635Z,2.80
2018-10-03T12:19:02.650Z,2.80
2018-10-03T12:20:02.942Z,2.60
2018-10-03T12:21:02.681Z,2.40
2018-10-03T12:22:02.694Z,2.60
2018-10-03T12:23:02.709Z,2.30
2018-10-03T12:24:02.735Z,2.40
2018-10-03T12:25:02.788Z,2.50
2018-10-03T12:26:02.750Z,2.10
2018-10-03T12:27:02.765Z,2.20
2018-10-03T12:28:02.785Z,2.30
2018-10-03T12:29:02.808Z,2.20
2018-10-03T12:30:02.816Z,2.00
2018-10-03T12:31:02.846Z,2.30
2018-10-03T12:32:02.840Z,2.30
2018-10-03T12:33:02.889Z,2.20
2018-10-03T12:34:02.872Z,2.20
2018-10-03T12:35:02.887Z,2.30
2018-10-03T12:36:02.899Z,2.20
2018-10-03T12:37:02.917Z,2.40
2018-10-03T12:38:02.926Z,2.20
2018-10-03T12:39:02.948Z,2.70
2018-10-03T12:40:02.956Z,2.10
2018-10-03T12:41:02.974Z,2.50
2018-10-03T12:42:02.986Z,2.50
2018-10-03T12:43:02.999Z,2.90
2018-10-03T12:44:03.016Z,2.30
2018-10-03T12:45:03.080Z,1.90
2018-10-03T12:46:03.048Z,2.30
2018-10-03T12:47:03.059Z,2.20
2018-10-03T12:48:03.088Z,2.10
2018-10-03T12:49:03.171Z,2.60
2018-10-03T12:50:03.113Z,2.30
2018-10-03T12:51:03.378Z,2.20
2018-10-03T12:52:03.154Z,2.10
2018-10-03T12:53:03.150Z,2.50
2018-10-03T12:54:03.161Z,2.60
2018-10-03T12:55:03.187Z,2.30
2018-10-03T12:56:03.192Z,2.50
2018-10-03T12:57:03.210Z,2.70
2018-10-03T12:58:03.221Z,2.90
2018-10-03T12:59:03.245Z,2.20
2018-10-03T13:00:03.249Z,2.10
2018-10-03T13:01:03.270Z,2.60
2018-10-03T13:02:03.282Z,2.30
2018-10-03T13:03:03.309Z,2.70
2018-10-03T13:04:03.319Z,2.20
2018-10-03T13:05:03.323Z,2.60
2018-10-03T13:06:03.341Z,2.50
2018-10-03T13:07:03.356Z,2.50
2018-10-03T13:08:03.371Z,2.50
2018-10-03T13:09:03.382Z,2.70
2018-10-03T13:10:03.397Z,2.40
2018-10-03T13:11:03.420Z,2.50
2018-10-03T13:12:03.434Z,2.60
2018-10-03T13:13:03.445Z,2.30
2018-10-03T13:14:03.482Z,2.40
2018-10-03T13:15:03.476Z,2.50
2018-10-03T13:17:03.502Z,2.70
2018-10-03T13:18:03.638Z,2.30
2018-10-03T13:19:03.657Z,2.50
2018-10-03T13:20:03.562Z,2.40
2018-10-03T13:21:03.866Z,2.30
2018-10-03T13:22:03.594Z,2.10
2018-10-03T13:23:04.029Z,2.50
2018-10-03T13:24:03.610Z,2.20
2018-10-03T13:25:03.624Z,2.50
2018-10-03T13:26:03.638Z,2.50
2018-10-03T13:27:03.655Z,2.50
2018-10-03T13:28:03.670Z,2.70
2018-10-03T13:29:03.692Z,2.60
2018-10-03T13:30:03.698Z,2.60
2018-10-03T13:31:03.723Z,2.20
2018-10-03T13:32:03.741Z,2.50
2018-10-03T13:33:03.744Z,2.40
2018-10-03T13:34:03.758Z,2.20
2018-10-03T13:35:03.777Z,2.30
2018-10-03T13:36:03.791Z,2.40
2018-10-03T13:37:03.813Z,2.30
2018-10-03T13:38:03.819Z,2.30
2018-10-03T13:39:03.834Z,2.60
2018-10-03T13:40:03.851Z,2.70
2018-10-03T13:41:03.936Z,2.40
2018-10-03T13:42:03.888Z,2.60
2018-10-03T13:43:03.896Z,2.00
2018-10-03T13:44:03.913Z,2.30
2018-10-03T13:45:03.922Z,2.50
2018-10-03T13:46:03.937Z,2.40
2018-10-03T13:47:03.955Z,2.40
2018-10-03T13:48:03.976Z,2.60